12:18
Airports
History
Links
Donate
Help keep this website running!
PayPal
Bitcoin
This page is community maintained. The information is intended for PC simulator navigation or reference.
Always use approved charts for navigation.
LFHD
Pierrelate
Pierrelate (LFHD)
La Garde-Adhémar, Rhône-Alpes, France (26700)
4
Lat/Lng:44° 24' 3.26" N / 4° 42' 59.36" E
44.400906 / 4.71649
Elevation:197'ft / 60mMSL
ID / ICAO:LFHD
Runways:1
Longest:01-19
Grass 1,207m / 3,960ft
Nearby Weather07:00 GMT 2013-01-13
Nearby weather at LFLQ, Montelimar Ancone located 12.5 nautical miles from LFHD
Altimeter: 30.03
Visibility: 6.2 statute miles
Wind: 17 knots (from 030°)
Temp: 1°c / 34°f
Humidity: 69.2%

METAR: LFLQ 130700Z 03017KT 9999 FEW020 01/M04 Q1017

(Powered by phpweather)
Nearby VORs <50NM
Nearby NDBs
Runway 01 / 19
Dimensions:1207 x 79.9m 3960' x 262'ft
Surface:Grass
Edge Lights:Medium intensity
Runway 01 [A]Runway 19 [B]
Heading:006°TH 186°TH
Lat:
Lng:
44° 23' 43.93"N
4° 42' 56.52"E
44° 24' 22.59"N
4° 43' 2.21"E
User Notes and Comments
44° 24' 3.26" N / 4° 42' 59.36" E
Distance To
Airport ID:
Nearby Airports
4 Pont-St Esprit 9.7 NM
LFND SSW 199°
4 Valreas Visan 10.4 NM
LFNV ESE 115°
(C) Montelimar Ancone 12.5 NM
LFLQ ( WX ) N
(U) Orange Plan de Dieu 14.2 NM
LF08 SE 124°
(U) PLAN DE DIEU 18.2 NM
LF51 SE 146°
(C) Plan de Dieu 18.3 NM
8422 SE 146°
4 Ruoms 19.1 NM
LFHF W 279°
VFR Chart
Flight Planning at SkyVector.com